sensor_id;sensor_type;location;lat;lon;timestamp;P1;durP1;ratioP1;P2;durP2;ratioP2
58414;SDS011;44210;42.706;18.344;2023-02-24T00:02:23;15.23;;;13.65;;
58414;SDS011;44210;42.706;18.344;2023-02-24T00:04:49;17.30;;;13.43;;
58414;SDS011;44210;42.706;18.344;2023-02-24T00:07:16;17.52;;;13.10;;
58414;SDS011;44210;42.706;18.344;2023-02-24T00:09:42;18.60;;;13.60;;
58414;SDS011;44210;42.706;18.344;2023-02-24T00:12:09;15.10;;;12.30;;
58414;SDS011;44210;42.706;18.344;2023-02-24T00:14:37;15.77;;;12.73;;
58414;SDS011;44210;42.706;18.344;2023-02-24T00:17:04;15.52;;;11.40;;
58414;SDS011;44210;42.706;18.344;2023-02-24T00:19:33;13.52;;;11.48;;
58414;SDS011;44210;42.706;18.344;2023-02-24T00:22:00;15.52;;;12.55;;
58414;SDS011;44210;42.706;18.344;2023-02-24T00:24:26;16.83;;;13.80;;
58414;SDS011;44210;42.706;18.344;2023-02-24T00:26:53;14.82;;;12.52;;
58414;SDS011;44210;42.706;18.344;2023-02-24T00:29:20;16.65;;;13.55;;
58414;SDS011;44210;42.706;18.344;2023-02-24T00:31:56;16.27;;;12.38;;
58414;SDS011;44210;42.706;18.344;2023-02-24T00:34:30;19.00;;;13.45;;
58414;SDS011;44210;42.706;18.344;2023-02-24T00:36:57;18.67;;;14.43;;
58414;SDS011;44210;42.706;18.344;2023-02-24T00:39:24;18.90;;;15.60;;
58414;SDS011;44210;42.706;18.344;2023-02-24T00:41:57;19.40;;;14.88;;
58414;SDS011;44210;42.706;18.344;2023-02-24T00:44:49;17.50;;;14.45;;
58414;SDS011;44210;42.706;18.344;2023-02-24T00:47:17;14.38;;;12.80;;
58414;SDS011;44210;42.706;18.344;2023-02-24T00:49:44;14.85;;;12.10;;
58414;SDS011;44210;42.706;18.344;2023-02-24T00:52:15;13.70;;;11.75;;
58414;SDS011;44210;42.706;18.344;2023-02-24T00:54:42;14.43;;;11.60;;
58414;SDS011;44210;42.706;18.344;2023-02-24T00:57:08;14.32;;;11.50;;
58414;SDS011;44210;42.706;18.344;2023-02-24T00:59:34;12.93;;;11.63;;
58414;SDS011;44210;42.706;18.344;2023-02-24T01:02:01;13.40;;;10.55;;
58414;SDS011;44210;42.706;18.344;2023-02-24T01:04:28;12.80;;;10.13;;
58414;SDS011;44210;42.706;18.344;2023-02-24T01:06:54;11.38;;;10.20;;
58414;SDS011;44210;42.706;18.344;2023-02-24T01:09:29;12.98;;;10.90;;
58414;SDS011;44210;42.706;18.344;2023-02-24T01:11:55;12.82;;;11.45;;
58414;SDS011;44210;42.706;18.344;2023-02-24T01:14:42;12.95;;;11.40;;
58414;SDS011;44210;42.706;18.344;2023-02-24T01:17:08;12.90;;;11.00;;
58414;SDS011;44210;42.706;18.344;2023-02-24T01:19:35;15.07;;;12.73;;
58414;SDS011;44210;42.706;18.344;2023-02-24T01:22:02;13.77;;;12.05;;
58414;SDS011;44210;42.706;18.344;2023-02-24T01:24:33;14.00;;;11.77;;
58414;SDS011;44210;42.706;18.344;2023-02-24T01:26:59;16.92;;;13.00;;
58414;SDS011;44210;42.706;18.344;2023-02-24T01:29:26;13.20;;;11.88;;
58414;SDS011;44210;42.706;18.344;2023-02-24T01:31:52;14.30;;;12.80;;
58414;SDS011;44210;42.706;18.344;2023-02-24T01:34:22;15.02;;;12.55;;
58414;SDS011;44210;42.706;18.344;2023-02-24T01:36:48;13.63;;;11.05;;
58414;SDS011;44210;42.706;18.344;2023-02-24T01:39:14;14.10;;;11.45;;
58414;SDS011;44210;42.706;18.344;2023-02-24T01:41:41;11.82;;;10.63;;
58414;SDS011;44210;42.706;18.344;2023-02-24T01:46:45;14.73;;;11.45;;
58414;SDS011;44210;42.706;18.344;2023-02-24T01:49:28;12.63;;;10.57;;
58414;SDS011;44210;42.706;18.344;2023-02-24T01:52:07;11.02;;;9.43;;
58414;SDS011;44210;42.706;18.344;2023-02-24T01:57:19;9.70;;;8.68;;
58414;SDS011;44210;42.706;18.344;2023-02-24T01:59:46;11.57;;;8.93;;
58414;SDS011;44210;42.706;18.344;2023-02-24T02:02:12;11.05;;;8.77;;
58414;SDS011;44210;42.706;18.344;2023-02-24T02:07:06;10.50;;;9.40;;
58414;SDS011;44210;42.706;18.344;2023-02-24T02:09:35;12.32;;;10.27;;
58414;SDS011;44210;42.706;18.344;2023-02-24T02:12:01;13.95;;;10.27;;
58414;SDS011;44210;42.706;18.344;2023-02-24T02:14:27;12.25;;;10.60;;
58414;SDS011;44210;42.706;18.344;2023-02-24T02:26:56;8.55;;;7.65;;
58414;SDS011;44210;42.706;18.344;2023-02-24T02:34:31;7.93;;;7.22;;
58414;SDS011;44210;42.706;18.344;2023-02-24T02:37:02;7.90;;;7.10;;
58414;SDS011;44210;42.706;18.344;2023-02-24T02:39:34;9.02;;;7.90;;
58414;SDS011;44210;42.706;18.344;2023-02-24T02:43:07;7.53;;;6.78;;
58414;SDS011;44210;42.706;18.344;2023-02-24T02:47:34;95.50;;;9.38;;
58414;SDS011;44210;42.706;18.344;2023-02-24T02:52:38;298.05;;;12.73;;
58414;SDS011;44210;42.706;18.344;2023-02-24T02:55:10;10.50;;;8.93;;
58414;SDS011;44210;42.706;18.344;2023-02-24T02:57:38;11.45;;;9.80;;
58414;SDS011;44210;42.706;18.344;2023-02-24T03:00:09;55.65;;;10.68;;
58414;SDS011;44210;42.706;18.344;2023-02-24T03:02:38;9.38;;;8.38;;
58414;SDS011;44210;42.706;18.344;2023-02-24T03:05:05;7.65;;;6.82;;
58414;SDS011;44210;42.706;18.344;2023-02-24T03:07:35;7.45;;;6.35;;
58414;SDS011;44210;42.706;18.344;2023-02-24T03:10:06;26.83;;;7.93;;
58414;SDS011;44210;42.706;18.344;2023-02-24T03:12:35;10.80;;;7.80;;
58414;SDS011;44210;42.706;18.344;2023-02-24T03:15:04;8.85;;;7.60;;
58414;SDS011;44210;42.706;18.344;2023-02-24T03:17:34;9.73;;;8.23;;
58414;SDS011;44210;42.706;18.344;2023-02-24T03:20:08;14.80;;;9.30;;
58414;SDS011;44210;42.706;18.344;2023-02-24T03:25:35;12.02;;;10.73;;
58414;SDS011;44210;42.706;18.344;2023-02-24T03:28:06;12.75;;;10.85;;
58414;SDS011;44210;42.706;18.344;2023-02-24T03:30:42;12.35;;;10.40;;
58414;SDS011;44210;42.706;18.344;2023-02-24T03:33:11;13.43;;;11.05;;
58414;SDS011;44210;42.706;18.344;2023-02-24T03:35:41;12.98;;;10.55;;
58414;SDS011;44210;42.706;18.344;2023-02-24T03:38:08;17.40;;;13.13;;
58414;SDS011;44210;42.706;18.344;2023-02-24T03:40:37;13.15;;;11.20;;
58414;SDS011;44210;42.706;18.344;2023-02-24T03:43:07;16.65;;;11.38;;
58414;SDS011;44210;42.706;18.344;2023-02-24T03:45:37;18.38;;;12.07;;
58414;SDS011;44210;42.706;18.344;2023-02-24T03:48:05;13.05;;;10.15;;
58414;SDS011;44210;42.706;18.344;2023-02-24T03:50:32;9.30;;;8.10;;
58414;SDS011;44210;42.706;18.344;2023-02-24T03:55:53;8.85;;;7.55;;
58414;SDS011;44210;42.706;18.344;2023-02-24T04:01:18;8.00;;;7.15;;
58414;SDS011;44210;42.706;18.344;2023-02-24T04:14:37;9.13;;;7.85;;
58414;SDS011;44210;42.706;18.344;2023-02-24T04:17:07;13.20;;;8.73;;
58414;SDS011;44210;42.706;18.344;2023-02-24T04:19:36;11.80;;;9.90;;
58414;SDS011;44210;42.706;18.344;2023-02-24T04:22:03;14.93;;;9.40;;
58414;SDS011;44210;42.706;18.344;2023-02-24T04:24:30;11.85;;;9.93;;
58414;SDS011;44210;42.706;18.344;2023-02-24T04:26:57;13.73;;;10.68;;
58414;SDS011;44210;42.706;18.344;2023-02-24T04:29:25;14.75;;;12.10;;
58414;SDS011;44210;42.706;18.344;2023-02-24T04:31:53;12.32;;;10.52;;
58414;SDS011;44210;42.706;18.344;2023-02-24T04:34:22;14.60;;;12.68;;
58414;SDS011;44210;42.706;18.344;2023-02-24T04:36:48;26.13;;;15.93;;
58414;SDS011;44210;42.706;18.344;2023-02-24T04:39:15;19.48;;;15.27;;
58414;SDS011;44210;42.706;18.344;2023-02-24T04:41:43;20.27;;;15.13;;
58414;SDS011;44210;42.706;18.344;2023-02-24T04:44:09;16.88;;;14.32;;
58414;SDS011;44210;42.706;18.344;2023-02-24T04:46:35;16.02;;;12.73;;
58414;SDS011;44210;42.706;18.344;2023-02-24T04:49:01;12.05;;;10.75;;
58414;SDS011;44210;42.706;18.344;2023-02-24T04:51:27;12.15;;;10.27;;
58414;SDS011;44210;42.706;18.344;2023-02-24T04:53:56;9.90;;;8.80;;
58414;SDS011;44210;42.706;18.344;2023-02-24T04:56:22;11.20;;;9.38;;
58414;SDS011;44210;42.706;18.344;2023-02-24T04:58:48;13.63;;;10.35;;
58414;SDS011;44210;42.706;18.344;2023-02-24T05:01:14;11.25;;;10.02;;
58414;SDS011;44210;42.706;18.344;2023-02-24T05:03:40;11.05;;;9.50;;
58414;SDS011;44210;42.706;18.344;2023-02-24T05:06:10;11.10;;;9.95;;
58414;SDS011;44210;42.706;18.344;2023-02-24T05:08:38;14.07;;;11.73;;
58414;SDS011;44210;42.706;18.344;2023-02-24T05:11:04;15.57;;;11.27;;
58414;SDS011;44210;42.706;18.344;2023-02-24T05:13:30;12.82;;;11.15;;
58414;SDS011;44210;42.706;18.344;2023-02-24T05:16:07;15.45;;;11.88;;
58414;SDS011;44210;42.706;18.344;2023-02-24T05:18:33;12.35;;;10.63;;
58414;SDS011;44210;42.706;18.344;2023-02-24T05:21:12;12.52;;;10.45;;
58414;SDS011;44210;42.706;18.344;2023-02-24T05:23:57;12.35;;;9.73;;
58414;SDS011;44210;42.706;18.344;2023-02-24T05:26:28;15.48;;;11.48;;
58414;SDS011;44210;42.706;18.344;2023-02-24T05:28:56;14.60;;;12.35;;
58414;SDS011;44210;42.706;18.344;2023-02-24T05:31:24;16.40;;;13.30;;
58414;SDS011;44210;42.706;18.344;2023-02-24T05:33:52;18.88;;;14.27;;
58414;SDS011;44210;42.706;18.344;2023-02-24T05:36:19;19.23;;;14.32;;
58414;SDS011;44210;42.706;18.344;2023-02-24T05:38:46;18.92;;;14.95;;
58414;SDS011;44210;42.706;18.344;2023-02-24T05:41:16;21.90;;;17.30;;
58414;SDS011;44210;42.706;18.344;2023-02-24T05:43:46;23.38;;;18.23;;
58414;SDS011;44210;42.706;18.344;2023-02-24T05:46:17;22.25;;;17.75;;
58414;SDS011;44210;42.706;18.344;2023-02-24T05:48:43;24.63;;;19.98;;
58414;SDS011;44210;42.706;18.344;2023-02-24T05:51:11;23.50;;;19.38;;
58414;SDS011;44210;42.706;18.344;2023-02-24T05:53:38;22.38;;;16.77;;
58414;SDS011;44210;42.706;18.344;2023-02-24T05:56:07;20.30;;;15.15;;
58414;SDS011;44210;42.706;18.344;2023-02-24T05:58:33;22.45;;;17.65;;
58414;SDS011;44210;42.706;18.344;2023-02-24T06:01:08;19.48;;;17.27;;
58414;SDS011;44210;42.706;18.344;2023-02-24T06:03:40;23.77;;;17.65;;
58414;SDS011;44210;42.706;18.344;2023-02-24T06:06:10;23.27;;;17.77;;
58414;SDS011;44210;42.706;18.344;2023-02-24T06:08:36;20.58;;;16.30;;
58414;SDS011;44210;42.706;18.344;2023-02-24T06:11:15;21.42;;;16.70;;
58414;SDS011;44210;42.706;18.344;2023-02-24T06:13:43;20.40;;;16.38;;
58414;SDS011;44210;42.706;18.344;2023-02-24T06:16:11;18.77;;;16.88;;
58414;SDS011;44210;42.706;18.344;2023-02-24T06:18:39;18.85;;;16.55;;
58414;SDS011;44210;42.706;18.344;2023-02-24T06:21:05;15.18;;;12.95;;
58414;SDS011;44210;42.706;18.344;2023-02-24T06:23:36;12.30;;;10.00;;
58414;SDS011;44210;42.706;18.344;2023-02-24T06:26:03;10.75;;;8.77;;
58414;SDS011;44210;42.706;18.344;2023-02-24T06:28:30;9.70;;;8.70;;
58414;SDS011;44210;42.706;18.344;2023-02-24T06:30:57;12.00;;;8.98;;
58414;SDS011;44210;42.706;18.344;2023-02-24T06:33:27;11.57;;;10.20;;
58414;SDS011;44210;42.706;18.344;2023-02-24T06:35:55;10.98;;;9.88;;
58414;SDS011;44210;42.706;18.344;2023-02-24T06:38:24;17.88;;;10.65;;
58414;SDS011;44210;42.706;18.344;2023-02-24T06:40:50;11.82;;;10.57;;
58414;SDS011;44210;42.706;18.344;2023-02-24T06:43:16;11.73;;;10.52;;
58414;SDS011;44210;42.706;18.344;2023-02-24T06:45:43;12.20;;;10.10;;
58414;SDS011;44210;42.706;18.344;2023-02-24T06:48:09;15.43;;;11.20;;
58414;SDS011;44210;42.706;18.344;2023-02-24T06:50:36;14.25;;;11.30;;
58414;SDS011;44210;42.706;18.344;2023-02-24T06:53:02;13.25;;;10.98;;
58414;SDS011;44210;42.706;18.344;2023-02-24T06:55:28;13.27;;;11.23;;
58414;SDS011;44210;42.706;18.344;2023-02-24T06:57:54;14.63;;;11.52;;
58414;SDS011;44210;42.706;18.344;2023-02-24T07:00:31;12.88;;;11.02;;
58414;SDS011;44210;42.706;18.344;2023-02-24T07:03:04;13.70;;;9.88;;
58414;SDS011;44210;42.706;18.344;2023-02-24T07:05:48;11.52;;;9.68;;
58414;SDS011;44210;42.706;18.344;2023-02-24T07:08:18;11.35;;;9.10;;
58414;SDS011;44210;42.706;18.344;2023-02-24T07:10:50;13.02;;;10.00;;
58414;SDS011;44210;42.706;18.344;2023-02-24T07:13:16;11.35;;;8.27;;
58414;SDS011;44210;42.706;18.344;2023-02-24T07:15:42;10.30;;;9.18;;
58414;SDS011;44210;42.706;18.344;2023-02-24T07:18:13;13.48;;;9.73;;
58414;SDS011;44210;42.706;18.344;2023-02-24T07:20:39;14.25;;;12.05;;
58414;SDS011;44210;42.706;18.344;2023-02-24T07:23:09;14.07;;;12.65;;
58414;SDS011;44210;42.706;18.344;2023-02-24T07:25:35;13.60;;;12.00;;
58414;SDS011;44210;42.706;18.344;2023-02-24T07:28:03;15.32;;;11.73;;
58414;SDS011;44210;42.706;18.344;2023-02-24T07:30:31;11.75;;;10.02;;
58414;SDS011;44210;42.706;18.344;2023-02-24T07:32:59;13.85;;;12.00;;
58414;SDS011;44210;42.706;18.344;2023-02-24T07:35:28;14.70;;;11.77;;
58414;SDS011;44210;42.706;18.344;2023-02-24T07:37:54;12.80;;;10.52;;
58414;SDS011;44210;42.706;18.344;2023-02-24T07:40:26;12.45;;;10.13;;
58414;SDS011;44210;42.706;18.344;2023-02-24T07:42:52;11.38;;;9.85;;
58414;SDS011;44210;42.706;18.344;2023-02-24T07:45:18;14.50;;;10.63;;
58414;SDS011;44210;42.706;18.344;2023-02-24T07:47:44;12.02;;;9.75;;
58414;SDS011;44210;42.706;18.344;2023-02-24T07:50:10;13.52;;;10.30;;
58414;SDS011;44210;42.706;18.344;2023-02-24T07:52:43;11.93;;;10.18;;
58414;SDS011;44210;42.706;18.344;2023-02-24T07:55:09;11.55;;;10.35;;
58414;SDS011;44210;42.706;18.344;2023-02-24T07:57:35;15.85;;;11.13;;
58414;SDS011;44210;42.706;18.344;2023-02-24T08:00:05;12.00;;;10.65;;
58414;SDS011;44210;42.706;18.344;2023-02-24T08:02:43;15.98;;;11.98;;
58414;SDS011;44210;42.706;18.344;2023-02-24T08:05:09;12.15;;;10.88;;
58414;SDS011;44210;42.706;18.344;2023-02-24T08:07:35;17.45;;;14.10;;
58414;SDS011;44210;42.706;18.344;2023-02-24T08:10:01;14.93;;;13.32;;
58414;SDS011;44210;42.706;18.344;2023-02-24T08:12:34;17.00;;;13.73;;
58414;SDS011;44210;42.706;18.344;2023-02-24T08:15:00;14.77;;;13.20;;
58414;SDS011;44210;42.706;18.344;2023-02-24T08:17:41;17.58;;;14.23;;
58414;SDS011;44210;42.706;18.344;2023-02-24T08:20:07;18.35;;;15.05;;
58414;SDS011;44210;42.706;18.344;2023-02-24T08:22:37;17.13;;;13.75;;
58414;SDS011;44210;42.706;18.344;2023-02-24T08:25:08;18.40;;;14.73;;
58414;SDS011;44210;42.706;18.344;2023-02-24T08:27:35;17.75;;;14.27;;
58414;SDS011;44210;42.706;18.344;2023-02-24T08:30:05;19.27;;;15.20;;
58414;SDS011;44210;42.706;18.344;2023-02-24T08:32:41;20.77;;;14.88;;
58414;SDS011;44210;42.706;18.344;2023-02-24T08:35:09;21.27;;;15.43;;
58414;SDS011;44210;42.706;18.344;2023-02-24T08:37:39;18.90;;;16.48;;
58414;SDS011;44210;42.706;18.344;2023-02-24T08:40:12;17.80;;;15.73;;
58414;SDS011;44210;42.706;18.344;2023-02-24T08:45:26;21.42;;;16.33;;
58414;SDS011;44210;42.706;18.344;2023-02-24T08:47:53;19.95;;;16.00;;
58414;SDS011;44210;42.706;18.344;2023-02-24T08:50:25;20.95;;;16.55;;
58414;SDS011;44210;42.706;18.344;2023-02-24T08:52:55;22.25;;;16.15;;
58414;SDS011;44210;42.706;18.344;2023-02-24T08:55:21;18.83;;;15.85;;
58414;SDS011;44210;42.706;18.344;2023-02-24T08:57:54;24.60;;;17.17;;
58414;SDS011;44210;42.706;18.344;2023-02-24T09:00:20;20.40;;;17.65;;
58414;SDS011;44210;42.706;18.344;2023-02-24T09:03:06;19.98;;;17.88;;
58414;SDS011;44210;42.706;18.344;2023-02-24T09:05:32;25.08;;;15.90;;
58414;SDS011;44210;42.706;18.344;2023-02-24T09:08:02;22.75;;;16.45;;
58414;SDS011;44210;42.706;18.344;2023-02-24T09:10:29;20.02;;;16.38;;
58414;SDS011;44210;42.706;18.344;2023-02-24T09:12:55;22.63;;;15.65;;
58414;SDS011;44210;42.706;18.344;2023-02-24T09:15:21;18.42;;;15.25;;
58414;SDS011;44210;42.706;18.344;2023-02-24T09:17:49;18.98;;;15.00;;
58414;SDS011;44210;42.706;18.344;2023-02-24T09:20:25;19.92;;;15.20;;
58414;SDS011;44210;42.706;18.344;2023-02-24T09:22:55;19.77;;;15.80;;
58414;SDS011;44210;42.706;18.344;2023-02-24T09:25:27;23.52;;;16.77;;
58414;SDS011;44210;42.706;18.344;2023-02-24T09:28:09;23.40;;;14.77;;
58414;SDS011;44210;42.706;18.344;2023-02-24T09:30:41;18.50;;;11.65;;
58414;SDS011;44210;42.706;18.344;2023-02-24T09:33:26;14.07;;;11.25;;
58414;SDS011;44210;42.706;18.344;2023-02-24T09:35:54;12.27;;;9.07;;
58414;SDS011;44210;42.706;18.344;2023-02-24T09:38:27;17.10;;;9.05;;
58414;SDS011;44210;42.706;18.344;2023-02-24T09:41:19;12.77;;;8.93;;
58414;SDS011;44210;42.706;18.344;2023-02-24T09:43:56;11.63;;;8.48;;
58414;SDS011;44210;42.706;18.344;2023-02-24T09:46:27;13.63;;;9.90;;
58414;SDS011;44210;42.706;18.344;2023-02-24T09:48:55;13.90;;;10.52;;
58414;SDS011;44210;42.706;18.344;2023-02-24T09:51:29;14.70;;;9.20;;
58414;SDS011;44210;42.706;18.344;2023-02-24T09:54:10;13.63;;;8.23;;
58414;SDS011;44210;42.706;18.344;2023-02-24T09:56:40;13.80;;;8.00;;
58414;SDS011;44210;42.706;18.344;2023-02-24T09:59:14;13.52;;;8.80;;
58414;SDS011;44210;42.706;18.344;2023-02-24T10:01:58;15.80;;;9.20;;
58414;SDS011;44210;42.706;18.344;2023-02-24T10:17:18;10.48;;;7.07;;
58414;SDS011;44210;42.706;18.344;2023-02-24T10:19:58;10.38;;;6.65;;
58414;SDS011;44210;42.706;18.344;2023-02-24T10:24:58;9.90;;;6.80;;
58414;SDS011;44210;42.706;18.344;2023-02-24T10:30:12;9.15;;;6.63;;
58414;SDS011;44210;42.706;18.344;2023-02-24T10:35:16;14.07;;;5.97;;
58414;SDS011;44210;42.706;18.344;2023-02-24T10:37:43;9.85;;;5.90;;
58414;SDS011;44210;42.706;18.344;2023-02-24T10:40:10;14.63;;;6.95;;
58414;SDS011;44210;42.706;18.344;2023-02-24T10:42:41;13.25;;;6.82;;
58414;SDS011;44210;42.706;18.344;2023-02-24T10:45:13;7.75;;;5.70;;
58414;SDS011;44210;42.706;18.344;2023-02-24T10:47:42;15.07;;;6.70;;
58414;SDS011;44210;42.706;18.344;2023-02-24T10:50:18;13.07;;;6.72;;
58414;SDS011;44210;42.706;18.344;2023-02-24T10:52:46;10.30;;;5.65;;
58414;SDS011;44210;42.706;18.344;2023-02-24T10:55:26;14.38;;;6.35;;
58414;SDS011;44210;42.706;18.344;2023-02-24T11:00:52;13.73;;;6.35;;
58414;SDS011;44210;42.706;18.344;2023-02-24T11:03:31;14.43;;;5.80;;
58414;SDS011;44210;42.706;18.344;2023-02-24T11:06:23;12.68;;;5.63;;
58414;SDS011;44210;42.706;18.344;2023-02-24T11:09:14;10.40;;;5.68;;
58414;SDS011;44210;42.706;18.344;2023-02-24T11:14:56;13.15;;;5.63;;
58414;SDS011;44210;42.706;18.344;2023-02-24T11:17:47;15.15;;;5.70;;
58414;SDS011;44210;42.706;18.344;2023-02-24T11:22:44;12.15;;;5.72;;
58414;SDS011;44210;42.706;18.344;2023-02-24T11:25:20;9.90;;;6.05;;
58414;SDS011;44210;42.706;18.344;2023-02-24T11:27:47;7.55;;;5.53;;
58414;SDS011;44210;42.706;18.344;2023-02-24T11:35:16;10.30;;;6.28;;
58414;SDS011;44210;42.706;18.344;2023-02-24T11:37:59;7.45;;;5.35;;
58414;SDS011;44210;42.706;18.344;2023-02-24T11:40:27;7.18;;;5.50;;
58414;SDS011;44210;42.706;18.344;2023-02-24T11:42:57;12.15;;;5.95;;
58414;SDS011;44210;42.706;18.344;2023-02-24T11:45:32;15.60;;;6.00;;
58414;SDS011;44210;42.706;18.344;2023-02-24T11:48:23;14.23;;;6.30;;
58414;SDS011;44210;42.706;18.344;2023-02-24T11:56:27;12.73;;;6.13;;
58414;SDS011;44210;42.706;18.344;2023-02-24T12:04:27;11.98;;;5.60;;
58414;SDS011;44210;42.706;18.344;2023-02-24T12:06:56;12.43;;;5.43;;
58414;SDS011;44210;42.706;18.344;2023-02-24T12:09:25;9.02;;;5.18;;
58414;SDS011;44210;42.706;18.344;2023-02-24T12:11:58;8.70;;;5.90;;
58414;SDS011;44210;42.706;18.344;2023-02-24T12:17:00;11.05;;;5.35;;
58414;SDS011;44210;42.706;18.344;2023-02-24T12:19:39;8.15;;;5.07;;
58414;SDS011;44210;42.706;18.344;2023-02-24T12:22:12;11.57;;;5.80;;
58414;SDS011;44210;42.706;18.344;2023-02-24T12:24:40;8.55;;;5.60;;
58414;SDS011;44210;42.706;18.344;2023-02-24T12:47:09;10.15;;;5.13;;
58414;SDS011;44210;42.706;18.344;2023-02-24T12:52:33;9.18;;;5.07;;
58414;SDS011;44210;42.706;18.344;2023-02-24T12:55:12;10.27;;;5.07;;
58414;SDS011;44210;42.706;18.344;2023-02-24T13:00:12;10.27;;;4.85;;
58414;SDS011;44210;42.706;18.344;2023-02-24T13:05:21;13.90;;;6.30;;
58414;SDS011;44210;42.706;18.344;2023-02-24T13:15:23;18.25;;;8.48;;
58414;SDS011;44210;42.706;18.344;2023-02-24T13:17:51;9.13;;;6.00;;
58414;SDS011;44210;42.706;18.344;2023-02-24T13:20:24;12.75;;;6.32;;
58414;SDS011;44210;42.706;18.344;2023-02-24T13:22:50;19.45;;;5.60;;
58414;SDS011;44210;42.706;18.344;2023-02-24T13:25:18;11.88;;;5.70;;
58414;SDS011;44210;42.706;18.344;2023-02-24T13:27:53;11.40;;;5.05;;
58414;SDS011;44210;42.706;18.344;2023-02-24T13:30:27;8.25;;;5.05;;
58414;SDS011;44210;42.706;18.344;2023-02-24T13:32:58;12.13;;;5.40;;
58414;SDS011;44210;42.706;18.344;2023-02-24T13:37:51;10.13;;;5.22;;
58414;SDS011;44210;42.706;18.344;2023-02-24T13:45:21;11.85;;;5.72;;
58414;SDS011;44210;42.706;18.344;2023-02-24T13:51:06;10.73;;;5.35;;
58414;SDS011;44210;42.706;18.344;2023-02-24T14:01:18;10.65;;;5.53;;
58414;SDS011;44210;42.706;18.344;2023-02-24T14:06:51;9.93;;;5.50;;
58414;SDS011;44210;42.706;18.344;2023-02-24T14:09:21;10.63;;;6.03;;
58414;SDS011;44210;42.706;18.344;2023-02-24T14:11:52;10.00;;;5.05;;
58414;SDS011;44210;42.706;18.344;2023-02-24T14:14:20;11.25;;;5.32;;
58414;SDS011;44210;42.706;18.344;2023-02-24T14:16:47;15.93;;;5.75;;
58414;SDS011;44210;42.706;18.344;2023-02-24T14:19:14;10.05;;;5.47;;
58414;SDS011;44210;42.706;18.344;2023-02-24T14:21:48;10.50;;;5.10;;
58414;SDS011;44210;42.706;18.344;2023-02-24T14:24:14;11.05;;;5.80;;
58414;SDS011;44210;42.706;18.344;2023-02-24T14:26:42;8.93;;;5.78;;
58414;SDS011;44210;42.706;18.344;2023-02-24T14:29:08;12.98;;;5.55;;
58414;SDS011;44210;42.706;18.344;2023-02-24T14:31:34;9.63;;;5.65;;
58414;SDS011;44210;42.706;18.344;2023-02-24T14:34:01;13.93;;;6.20;;
58414;SDS011;44210;42.706;18.344;2023-02-24T14:36:36;14.43;;;6.72;;
58414;SDS011;44210;42.706;18.344;2023-02-24T14:41:28;12.45;;;7.80;;
58414;SDS011;44210;42.706;18.344;2023-02-24T14:43:54;11.27;;;6.25;;
58414;SDS011;44210;42.706;18.344;2023-02-24T14:46:20;10.35;;;6.38;;
58414;SDS011;44210;42.706;18.344;2023-02-24T14:48:50;7.90;;;5.32;;
58414;SDS011;44210;42.706;18.344;2023-02-24T14:51:32;10.85;;;4.93;;
58414;SDS011;44210;42.706;18.344;2023-02-24T14:54:00;9.23;;;5.57;;
58414;SDS011;44210;42.706;18.344;2023-02-24T14:56:29;9.27;;;5.82;;
58414;SDS011;44210;42.706;18.344;2023-02-24T14:59:30;14.48;;;6.70;;
58414;SDS011;44210;42.706;18.344;2023-02-24T15:01:49;13.97;;;5.77;;
58414;SDS011;44210;42.706;18.344;2023-02-24T15:04:23;15.38;;;8.20;;
58414;SDS011;44210;42.706;18.344;2023-02-24T15:06:50;9.77;;;6.13;;
58414;SDS011;44210;42.706;18.344;2023-02-24T15:09:24;15.70;;;6.43;;
58414;SDS011;44210;42.706;18.344;2023-02-24T15:11:52;8.82;;;6.20;;
58414;SDS011;44210;42.706;18.344;2023-02-24T15:14:21;14.70;;;7.63;;
58414;SDS011;44210;42.706;18.344;2023-02-24T15:16:48;18.92;;;10.77;;
58414;SDS011;44210;42.706;18.344;2023-02-24T15:21:57;18.75;;;10.07;;
58414;SDS011;44210;42.706;18.344;2023-02-24T15:26:56;14.02;;;8.27;;
58414;SDS011;44210;42.706;18.344;2023-02-24T15:29:24;9.77;;;6.35;;
58414;SDS011;44210;42.706;18.344;2023-02-24T15:31:52;9.20;;;5.75;;
58414;SDS011;44210;42.706;18.344;2023-02-24T15:34:20;12.57;;;5.35;;
58414;SDS011;44210;42.706;18.344;2023-02-24T15:36:47;10.57;;;6.32;;
58414;SDS011;44210;42.706;18.344;2023-02-24T15:39:19;10.95;;;5.80;;
58414;SDS011;44210;42.706;18.344;2023-02-24T15:41:47;14.40;;;7.18;;
58414;SDS011;44210;42.706;18.344;2023-02-24T15:44:29;9.40;;;5.25;;
58414;SDS011;44210;42.706;18.344;2023-02-24T15:46:57;10.27;;;5.88;;
58414;SDS011;44210;42.706;18.344;2023-02-24T15:49:23;17.58;;;8.32;;
58414;SDS011;44210;42.706;18.344;2023-02-24T15:51:50;11.75;;;7.53;;
58414;SDS011;44210;42.706;18.344;2023-02-24T15:56:46;9.52;;;6.03;;
58414;SDS011;44210;42.706;18.344;2023-02-24T15:59:13;12.18;;;5.40;;
58414;SDS011;44210;42.706;18.344;2023-02-24T16:01:39;9.80;;;5.38;;
58414;SDS011;44210;42.706;18.344;2023-02-24T16:04:05;12.10;;;5.78;;
58414;SDS011;44210;42.706;18.344;2023-02-24T16:06:33;14.35;;;5.97;;
58414;SDS011;44210;42.706;18.344;2023-02-24T16:09:05;7.57;;;5.23;;
58414;SDS011;44210;42.706;18.344;2023-02-24T16:11:32;11.82;;;5.30;;
58414;SDS011;44210;42.706;18.344;2023-02-24T16:14:01;11.50;;;5.55;;
58414;SDS011;44210;42.706;18.344;2023-02-24T16:16:27;8.38;;;5.25;;
58414;SDS011;44210;42.706;18.344;2023-02-24T16:18:53;13.00;;;6.25;;
58414;SDS011;44210;42.706;18.344;2023-02-24T16:21:20;10.88;;;5.75;;
58414;SDS011;44210;42.706;18.344;2023-02-24T16:23:47;9.25;;;5.78;;
58414;SDS011;44210;42.706;18.344;2023-02-24T16:26:15;11.75;;;6.47;;
58414;SDS011;44210;42.706;18.344;2023-02-24T16:28:42;12.55;;;6.05;;
58414;SDS011;44210;42.706;18.344;2023-02-24T16:31:09;11.57;;;7.65;;
58414;SDS011;44210;42.706;18.344;2023-02-24T16:33:35;17.35;;;9.00;;
58414;SDS011;44210;42.706;18.344;2023-02-24T16:36:01;24.17;;;12.45;;
58414;SDS011;44210;42.706;18.344;2023-02-24T16:38:27;17.10;;;11.02;;
58414;SDS011;44210;42.706;18.344;2023-02-24T16:40:53;21.15;;;12.00;;
58414;SDS011;44210;42.706;18.344;2023-02-24T16:43:20;18.65;;;12.48;;
58414;SDS011;44210;42.706;18.344;2023-02-24T16:45:46;18.30;;;11.88;;
58414;SDS011;44210;42.706;18.344;2023-02-24T16:48:14;18.45;;;11.13;;
58414;SDS011;44210;42.706;18.344;2023-02-24T16:50:43;18.33;;;10.10;;
58414;SDS011;44210;42.706;18.344;2023-02-24T16:53:11;12.10;;;9.35;;
58414;SDS011;44210;42.706;18.344;2023-02-24T16:55:38;10.82;;;8.50;;
58414;SDS011;44210;42.706;18.344;2023-02-24T16:58:05;12.43;;;7.78;;
58414;SDS011;44210;42.706;18.344;2023-02-24T17:00:31;15.68;;;10.93;;
58414;SDS011;44210;42.706;18.344;2023-02-24T17:02:57;17.23;;;9.27;;
58414;SDS011;44210;42.706;18.344;2023-02-24T17:05:24;15.05;;;8.77;;
58414;SDS011;44210;42.706;18.344;2023-02-24T17:07:54;14.55;;;10.93;;
58414;SDS011;44210;42.706;18.344;2023-02-24T17:10:21;36.92;;;21.92;;
58414;SDS011;44210;42.706;18.344;2023-02-24T17:12:47;25.30;;;16.55;;
58414;SDS011;44210;42.706;18.344;2023-02-24T17:15:14;23.48;;;14.50;;
58414;SDS011;44210;42.706;18.344;2023-02-24T17:17:40;25.15;;;14.65;;